< < Back
Terminal Aerodrome Forecast


Current Version              Previous Versions:   1  2  3  4  5  6  7  8  9  

Terminal Aerodrome Forecast

571
FTUS42 KGSP 061503 AAA
TAFCLT
TAF AMD
KCLT 061503Z 0615/0712 02008G16KT P6SM FEW250
     FM061600 03010KT P6SM FEW030
     FM061800 36005KT P6SM SKC
     FM062200 18004KT P6SM SKC=

Latest METAR

328
SAUS70 KWBC 062100 RRD
MTRCLT
METAR KCLT 062052Z VRB04KT 10SM FEW250 06/M09 A3039 RMK AO2 SLP294
T00611094 56021 $


USA.gov is the U.S. government's official web portal to all federal, state and local government web resources and services.